Terminal Aerodrome Forecast
Issued by NWS

Home | Current Version | Previous Version | Text Only | Print | Product List | Glossary Off
Versions: 1 2 3 4 5 6 7 8 9 10 11 12 13 14 15 16 17 18 19 20 21 22 23

000
FTUS45 KGGW 181700 RRA
TAFGDV
TAF
KGDV 181741Z 1818/1918 20016KT P6SM FEW100
     FM182000 33025G37KT P6SM BKN100
     FM182300 34020G30KT P6SM BKN110
     FM190600 32012KT P6SM FEW200
     FM191200 31015KT P6SM BKN100
      AMD LTD TO CLD VIS AND WIND=

USA.gov is the U.S. government's official web portal to all federal, state and local government web resources and services.